createdAt,value
2024-04-04T00:00:31.441Z,88.39
2024-04-04T00:01:31.428Z,88.38
2024-04-04T00:02:31.446Z,88.50
2024-04-04T00:03:31.436Z,88.59
2024-04-04T00:04:31.424Z,88.64
2024-04-04T00:05:31.376Z,88.75
2024-04-04T00:06:31.364Z,88.94
2024-04-04T00:07:31.389Z,89.16
2024-04-04T00:08:31.342Z,89.31
2024-04-04T00:09:31.351Z,89.56
2024-04-04T00:10:31.325Z,89.72
2024-04-04T00:11:31.297Z,89.95
2024-04-04T00:12:31.283Z,90.01
2024-04-04T00:13:31.273Z,90.13
2024-04-04T00:14:31.294Z,90.15
2024-04-04T00:15:31.252Z,90.07
2024-04-04T00:16:31.269Z,90.07
2024-04-04T00:17:31.236Z,89.97
2024-04-04T00:18:31.217Z,89.86
2024-04-04T00:19:31.202Z,89.78
2024-04-04T00:20:31.222Z,89.73
2024-04-04T00:21:31.184Z,89.74
2024-04-04T00:22:31.159Z,89.82
2024-04-04T00:23:31.163Z,90.07
2024-04-04T00:24:31.138Z,90.06
2024-04-04T00:25:31.132Z,90.16
2024-04-04T00:26:31.164Z,90.22
2024-04-04T00:27:31.097Z,90.23
2024-04-04T00:28:31.091Z,90.25
2024-04-04T00:29:31.083Z,90.20
2024-04-04T00:30:31.066Z,90.24
2024-04-04T00:31:31.062Z,89.99
2024-04-04T00:32:31.111Z,89.91
2024-04-04T00:33:31.042Z,89.89
2024-04-04T00:34:31.012Z,89.83
2024-04-04T00:35:31.031Z,89.71
2024-04-04T00:36:31.000Z,89.73
2024-04-04T00:37:30.974Z,89.72
2024-04-04T00:38:31.000Z,89.59
2024-04-04T00:39:30.957Z,89.50
2024-04-04T00:40:30.938Z,89.39
2024-04-04T00:41:30.926Z,89.40
2024-04-04T00:42:30.906Z,89.23
2024-04-04T00:43:30.896Z,89.08
2024-04-04T00:44:30.897Z,89.13
2024-04-04T00:45:30.874Z,89.12
2024-04-04T00:46:30.857Z,89.19
2024-04-04T00:47:30.864Z,89.28
2024-04-04T00:48:30.834Z,89.43
2024-04-04T00:49:30.870Z,89.38
2024-04-04T00:50:30.811Z,89.36
2024-04-04T00:51:30.833Z,89.43
2024-04-04T00:52:30.800Z,89.52
2024-04-04T00:53:30.779Z,89.59
2024-04-04T00:54:30.757Z,89.57
2024-04-04T00:55:30.779Z,89.57
2024-04-04T00:56:30.728Z,89.66
2024-04-04T00:57:30.719Z,89.76
2024-04-04T00:58:30.707Z,89.84
2024-04-04T00:59:30.702Z,89.88
2024-04-04T01:00:30.708Z,89.91
2024-04-04T01:01:30.679Z,89.97
2024-04-04T01:02:30.654Z,90.08
2024-04-04T01:03:30.646Z,90.09
2024-04-04T01:04:30.638Z,90.12
2024-04-04T01:05:30.631Z,90.25
2024-04-04T01:06:30.650Z,90.33
2024-04-04T01:07:30.608Z,90.35
2024-04-04T01:08:30.576Z,90.40
2024-04-04T01:09:30.575Z,90.45
2024-04-04T01:10:30.567Z,90.50
2024-04-04T01:11:30.553Z,90.47
2024-04-04T01:12:30.579Z,90.46
2024-04-04T01:13:31.423Z,90.60
2024-04-04T01:14:30.511Z,90.72
2024-04-04T01:15:30.492Z,90.86
2024-04-04T01:16:30.478Z,91.00
2024-04-04T01:17:30.575Z,91.03
2024-04-04T01:18:30.486Z,91.01
2024-04-04T01:19:30.452Z,91.01
2024-04-04T01:20:30.422Z,91.13
2024-04-04T01:21:30.419Z,91.27
2024-04-04T01:22:30.397Z,91.37
2024-04-04T01:23:30.432Z,91.46
2024-04-04T01:24:30.379Z,91.55
2024-04-04T01:25:30.369Z,91.61
2024-04-04T01:26:30.358Z,91.59
2024-04-04T01:27:30.337Z,91.56
2024-04-04T01:28:30.371Z,91.60
2024-04-04T01:29:30.362Z,91.62
2024-04-04T01:30:30.307Z,91.61
2024-04-04T01:31:30.291Z,91.63
2024-04-04T01:32:30.357Z,91.70
2024-04-04T01:33:30.272Z,91.75
2024-04-04T01:34:30.252Z,91.80
2024-04-04T01:35:30.301Z,91.85
2024-04-04T01:36:30.264Z,91.93
2024-04-04T01:37:30.213Z,92.11
2024-04-04T01:38:30.198Z,92.31
2024-04-04T01:39:30.208Z,92.52
2024-04-04T01:40:30.239Z,92.83
2024-04-04T01:41:30.178Z,93.05
2024-04-04T01:42:30.149Z,93.22
2024-04-04T01:43:30.149Z,93.35
2024-04-04T01:44:30.118Z,93.50
2024-04-04T01:45:30.116Z,93.62
2024-04-04T01:46:30.126Z,93.73
2024-04-04T01:47:30.126Z,93.92
2024-04-04T01:48:30.077Z,94.07
2024-04-04T01:49:30.059Z,94.26
2024-04-04T01:50:30.040Z,94.40
2024-04-04T01:51:30.031Z,94.54
2024-04-04T01:52:30.035Z,94.69
2024-04-04T01:53:30.009Z,94.75
2024-04-04T01:54:29.979Z,94.78
2024-04-04T01:55:29.983Z,94.78
2024-04-04T01:56:29.965Z,94.73
2024-04-04T01:57:30.005Z,94.74
2024-04-04T01:58:29.948Z,94.70
2024-04-04T01:59:29.928Z,94.74
2024-04-04T02:00:29.922Z,94.82
2024-04-04T02:01:29.905Z,94.94
2024-04-04T02:02:29.900Z,95.01
2024-04-04T02:03:29.905Z,95.12
2024-04-04T02:04:29.878Z,95.25
2024-04-04T02:05:29.862Z,95.38
2024-04-04T02:06:29.846Z,95.41
2024-04-04T02:07:29.826Z,95.46
2024-04-04T02:08:29.832Z,95.40
2024-04-04T02:09:29.839Z,95.31
2024-04-04T02:10:29.781Z,95.24
2024-04-04T02:11:29.771Z,95.20
2024-04-04T02:12:29.758Z,95.20
2024-04-04T02:13:29.762Z,95.27
2024-04-04T02:14:29.762Z,95.30
2024-04-04T02:15:29.742Z,95.22
2024-04-04T02:16:29.734Z,95.18
2024-04-04T02:17:29.741Z,95.05
2024-04-04T02:18:29.711Z,94.91
2024-04-04T02:19:29.701Z,94.83
2024-04-04T02:20:29.719Z,94.80
2024-04-04T02:21:29.656Z,94.82
2024-04-04T02:22:29.651Z,94.71
2024-04-04T02:23:29.628Z,94.58
2024-04-04T02:24:29.626Z,94.46
2024-04-04T02:25:29.603Z,94.37
2024-04-04T02:26:29.592Z,94.28
2024-04-04T02:27:29.581Z,94.24
2024-04-04T02:28:29.570Z,94.28
2024-04-04T02:29:29.553Z,94.35
2024-04-04T02:30:29.533Z,94.38
2024-04-04T02:31:29.553Z,94.44
2024-04-04T02:32:29.525Z,94.67
2024-04-04T02:33:29.498Z,94.74
2024-04-04T02:34:29.489Z,94.82
2024-04-04T02:35:29.489Z,94.86
2024-04-04T02:36:30.900Z,94.90
2024-04-04T02:37:29.480Z,94.94
2024-04-04T02:38:29.438Z,95.07
2024-04-04T02:39:29.425Z,95.27
2024-04-04T02:40:29.400Z,95.40
2024-04-04T02:41:29.430Z,95.50
2024-04-04T02:42:29.428Z,95.57
2024-04-04T02:43:29.390Z,95.59
2024-04-04T02:44:29.359Z,95.64
2024-04-04T02:45:29.360Z,95.60
2024-04-04T02:46:29.328Z,95.52
2024-04-04T02:47:29.450Z,95.42
2024-04-04T02:48:29.338Z,95.35
2024-04-04T02:49:29.305Z,95.30
2024-04-04T02:50:29.286Z,95.28
2024-04-04T02:51:29.272Z,95.35
2024-04-04T02:52:29.255Z,95.35
2024-04-04T02:53:29.475Z,95.28
2024-04-04T02:54:29.256Z,95.15
2024-04-04T02:55:29.237Z,94.98
2024-04-04T02:56:29.198Z,94.86
2024-04-04T02:57:29.200Z,94.81
2024-04-04T02:58:29.199Z,94.85
2024-04-04T02:59:29.178Z,94.86
2024-04-04T03:00:29.282Z,94.88
2024-04-04T03:01:29.139Z,95.00
2024-04-04T03:02:29.165Z,95.02
2024-04-04T03:03:29.126Z,94.99
2024-04-04T03:04:29.107Z,95.02
2024-04-04T03:05:29.121Z,95.15
2024-04-04T03:06:29.072Z,95.30
2024-04-04T03:07:29.058Z,95.39
2024-04-04T03:08:29.058Z,95.45
2024-04-04T03:09:29.036Z,95.40
2024-04-04T03:10:29.035Z,95.33
2024-04-04T03:11:29.072Z,95.22
2024-04-04T03:12:30.469Z,95.19
2024-04-04T03:13:29.000Z,95.19
2024-04-04T03:14:28.982Z,95.17
2024-04-04T03:15:28.962Z,95.26
2024-04-04T03:16:28.956Z,95.37
2024-04-04T03:17:28.999Z,95.44
2024-04-04T03:18:28.961Z,95.47
2024-04-04T03:19:28.915Z,95.46
2024-04-04T03:20:28.914Z,95.41
2024-04-04T03:21:28.885Z,95.45
2024-04-04T03:22:29.396Z,95.43
2024-04-04T03:23:28.879Z,95.32
2024-04-04T03:24:28.886Z,95.28
2024-04-04T03:25:28.849Z,95.28
2024-04-04T03:26:28.829Z,95.18
2024-04-04T03:27:28.839Z,95.07
2024-04-04T03:28:28.824Z,95.03
2024-04-04T03:29:28.781Z,95.09
2024-04-04T03:30:28.800Z,95.15
2024-04-04T03:31:28.753Z,95.18
2024-04-04T03:32:28.750Z,95.14
2024-04-04T03:33:28.730Z,95.17
2024-04-04T03:34:28.731Z,95.27
2024-04-04T03:35:28.701Z,95.29
2024-04-04T03:36:28.724Z,95.25
2024-04-04T03:37:28.678Z,95.25
2024-04-04T03:38:28.677Z,95.24
2024-04-04T03:39:28.692Z,95.32
2024-04-04T03:40:28.652Z,95.28
2024-04-04T03:41:28.641Z,95.26
2024-04-04T03:42:28.620Z,95.27
2024-04-04T03:43:28.597Z,95.32
2024-04-04T03:44:28.603Z,95.43
2024-04-04T03:45:28.615Z,95.51
2024-04-04T03:46:28.580Z,95.55
2024-04-04T03:47:28.576Z,95.59
2024-04-04T03:48:28.536Z,95.59
2024-04-04T03:49:28.534Z,95.60
2024-04-04T03:50:28.529Z,95.67
2024-04-04T03:51:28.528Z,95.75
2024-04-04T03:52:28.500Z,95.82
2024-04-04T03:53:28.474Z,95.91
2024-04-04T03:54:28.474Z,96.00
2024-04-04T03:55:28.459Z,96.11
2024-04-04T03:56:28.486Z,96.17
2024-04-04T03:57:28.422Z,96.23
2024-04-04T03:58:28.423Z,96.26
2024-04-04T03:59:28.418Z,96.31
2024-04-04T04:00:28.391Z,96.37
2024-04-04T04:01:28.374Z,96.46
2024-04-04T04:02:28.434Z,96.59
2024-04-04T04:03:28.351Z,96.74
2024-04-04T04:04:28.344Z,96.84
2024-04-04T04:05:28.328Z,96.90
2024-04-04T04:06:28.326Z,96.90
2024-04-04T04:07:28.326Z,96.92
2024-04-04T04:08:28.304Z,96.97
2024-04-04T04:09:28.290Z,97.11
2024-04-04T04:10:28.262Z,97.20
2024-04-04T04:11:28.268Z,97.21
2024-04-04T04:12:28.283Z,97.25
2024-04-04T04:13:28.257Z,97.30
2024-04-04T04:14:28.213Z,97.29
2024-04-04T04:15:28.197Z,97.20
2024-04-04T04:16:28.191Z,97.12
2024-04-04T04:17:28.203Z,97.04
2024-04-04T04:18:28.177Z,97.01
2024-04-04T04:19:28.223Z,96.98
2024-04-04T04:20:28.148Z,96.92
2024-04-04T04:21:28.121Z,96.86
2024-04-04T04:22:28.108Z,96.76
2024-04-04T04:23:28.100Z,96.69
2024-04-04T04:24:28.085Z,96.65
2024-04-04T04:25:28.105Z,96.56
2024-04-04T04:26:29.185Z,96.55
2024-04-04T04:27:28.041Z,96.51
2024-04-04T04:28:28.041Z,96.48
2024-04-04T04:29:28.034Z,96.45
2024-04-04T04:30:28.013Z,96.46
2024-04-04T04:31:28.017Z,96.51
2024-04-04T04:32:27.996Z,96.48
2024-04-04T04:33:27.960Z,96.43
2024-04-04T04:34:27.951Z,96.35
2024-04-04T04:35:27.947Z,96.22
2024-04-04T04:36:27.927Z,96.17
2024-04-04T04:37:27.939Z,96.08
2024-04-04T04:38:27.902Z,95.96
2024-04-04T04:39:27.900Z,95.89
2024-04-04T04:40:27.885Z,95.86
2024-04-04T04:41:27.866Z,95.79
2024-04-04T04:42:27.856Z,95.63
2024-04-04T04:43:27.844Z,95.42
2024-04-04T04:44:27.832Z,95.19
2024-04-04T04:45:27.822Z,95.06
2024-04-04T04:46:27.797Z,94.98
2024-04-04T04:47:27.808Z,94.88
2024-04-04T04:48:27.801Z,94.75
2024-04-04T04:49:27.773Z,94.55
2024-04-04T04:50:27.749Z,94.30
2024-04-04T04:51:27.749Z,94.02
2024-04-04T04:52:27.740Z,93.87
2024-04-04T04:53:27.706Z,93.76
2024-04-04T04:54:27.735Z,93.55
2024-04-04T04:55:27.676Z,93.38
2024-04-04T04:56:27.682Z,93.21
2024-04-04T04:57:27.665Z,93.01
2024-04-04T04:58:27.691Z,92.77
2024-04-04T04:59:27.637Z,92.64
2024-04-04T05:00:27.646Z,92.62
2024-04-04T05:01:27.612Z,92.60
2024-04-04T05:02:27.638Z,92.58
2024-04-04T05:03:27.612Z,92.54
2024-04-04T05:04:27.608Z,92.40
2024-04-04T05:05:27.579Z,92.22
2024-04-04T05:06:27.559Z,92.16
2024-04-04T05:07:27.538Z,92.20
2024-04-04T05:08:27.527Z,92.24
2024-04-04T05:09:27.534Z,92.38
2024-04-04T05:10:27.523Z,92.48
2024-04-04T05:11:27.547Z,92.59
2024-04-04T05:12:27.473Z,92.73
2024-04-04T05:13:27.472Z,92.83
2024-04-04T05:14:27.444Z,92.85
2024-04-04T05:15:27.448Z,92.80
2024-04-04T05:16:27.432Z,92.76
2024-04-04T05:17:27.446Z,92.75
2024-04-04T05:18:27.403Z,92.76
2024-04-04T05:19:27.396Z,92.77
2024-04-04T05:20:27.379Z,92.80
2024-04-04T05:21:27.360Z,92.74
2024-04-04T05:22:27.369Z,92.64
2024-04-04T05:23:27.336Z,92.54
2024-04-04T05:24:27.324Z,92.44
2024-04-04T05:25:27.437Z,92.48
2024-04-04T05:26:27.295Z,92.53
2024-04-04T05:27:27.274Z,92.57
2024-04-04T05:28:27.313Z,92.53
2024-04-04T05:29:27.258Z,92.50
2024-04-04T05:30:28.251Z,92.32
2024-04-04T05:31:27.221Z,91.98
2024-04-04T05:32:27.224Z,91.67
2024-04-04T05:33:27.208Z,91.44
2024-04-04T05:34:27.195Z,91.29
2024-04-04T05:35:27.179Z,91.22
2024-04-04T05:36:27.172Z,91.29
2024-04-04T05:37:27.166Z,91.23
2024-04-04T05:38:27.145Z,91.22
2024-04-04T05:39:27.162Z,91.16
2024-04-04T05:40:27.123Z,91.16
2024-04-04T05:41:27.099Z,91.04
2024-04-04T05:42:27.110Z,90.89
2024-04-04T05:43:27.077Z,90.65
2024-04-04T05:44:27.054Z,90.58
2024-04-04T05:45:27.112Z,90.61
2024-04-04T05:46:27.047Z,90.73
2024-04-04T05:47:27.086Z,90.93
2024-04-04T05:48:27.022Z,90.96
2024-04-04T05:49:26.988Z,91.07
2024-04-04T05:50:26.991Z,91.20
2024-04-04T05:51:26.983Z,91.27
2024-04-04T05:52:26.954Z,91.25
2024-04-04T05:53:26.936Z,91.28
2024-04-04T05:54:26.924Z,91.33
2024-04-04T05:55:27.016Z,91.24
2024-04-04T05:56:26.923Z,91.03
2024-04-04T05:57:26.981Z,90.88
2024-04-04T05:58:26.886Z,90.89
2024-04-04T05:59:26.858Z,90.71
2024-04-04T06:00:26.847Z,90.59
2024-04-04T06:01:27.650Z,90.47
2024-04-04T06:02:26.864Z,90.43
2024-04-04T06:03:26.833Z,90.46
2024-04-04T06:04:31.771Z,90.45
2024-04-04T06:05:26.790Z,90.28
2024-04-04T06:06:26.768Z,90.09
2024-04-04T06:07:26.795Z,89.78
2024-04-04T06:08:26.761Z,89.36
2024-04-04T06:09:26.743Z,88.97
2024-04-04T06:10:26.733Z,88.81
2024-04-04T06:11:26.708Z,88.60
2024-04-04T06:12:26.707Z,88.10
2024-04-04T06:13:26.739Z,87.66
2024-04-04T06:14:26.679Z,86.92
2024-04-04T06:15:26.654Z,86.84
2024-04-04T06:16:26.665Z,86.23
2024-04-04T06:17:26.637Z,85.62
2024-04-04T06:18:26.635Z,85.22
2024-04-04T06:19:26.638Z,85.27
2024-04-04T06:20:26.591Z,84.91
2024-04-04T06:21:26.575Z,85.16
2024-04-04T06:22:26.573Z,85.08
2024-04-04T06:23:26.562Z,84.51
2024-04-04T06:24:26.559Z,84.44
2024-04-04T06:25:26.550Z,84.15
2024-04-04T06:26:26.505Z,84.16
2024-04-04T06:27:26.527Z,84.15
2024-04-04T06:28:26.513Z,83.90
2024-04-04T06:29:26.480Z,82.65
2024-04-04T06:30:26.513Z,82.35
2024-04-04T06:31:26.459Z,82.43
2024-04-04T06:32:26.446Z,82.46
2024-04-04T06:33:26.439Z,82.13
2024-04-04T06:34:26.419Z,81.91
2024-04-04T06:35:26.404Z,81.56
2024-04-04T06:36:28.152Z,81.43
2024-04-04T06:37:26.393Z,80.62
2024-04-04T06:38:26.372Z,80.38
2024-04-04T06:39:26.346Z,80.02
2024-04-04T06:40:26.356Z,79.28
2024-04-04T06:41:26.321Z,78.82
2024-04-04T06:42:27.880Z,79.65
2024-04-04T06:43:26.303Z,80.01
2024-04-04T06:44:26.284Z,80.16
2024-04-04T06:45:26.283Z,79.98
2024-04-04T06:46:26.260Z,79.91
2024-04-04T06:47:26.300Z,78.92
2024-04-04T06:48:26.232Z,78.88
2024-04-04T06:49:26.212Z,79.53
2024-04-04T06:50:26.202Z,79.02
2024-04-04T06:51:26.198Z,79.32
2024-04-04T06:52:26.184Z,79.92
2024-04-04T06:53:26.200Z,78.72
2024-04-04T06:54:26.194Z,78.53
2024-04-04T06:55:26.136Z,77.38
2024-04-04T06:56:26.143Z,76.88
2024-04-04T06:57:26.128Z,77.15
2024-04-04T06:58:26.206Z,76.11
2024-04-04T06:59:26.107Z,75.69
2024-04-04T07:00:26.108Z,75.67
2024-04-04T07:01:26.068Z,75.57
2024-04-04T07:02:26.050Z,74.96
2024-04-04T07:03:26.050Z,74.64
2024-04-04T07:04:26.177Z,74.88
2024-04-04T07:05:26.015Z,73.50
2024-04-04T07:06:26.008Z,73.94
2024-04-04T07:07:25.985Z,72.10
2024-04-04T07:08:25.996Z,71.83
2024-04-04T07:09:25.963Z,70.67
2024-04-04T07:10:25.983Z,70.23
2024-04-04T07:11:25.939Z,70.92
2024-04-04T07:12:25.933Z,70.83
2024-04-04T07:13:25.911Z,70.19
2024-04-04T07:14:25.912Z,69.56
2024-04-04T07:15:25.890Z,69.68
2024-04-04T07:16:25.888Z,70.59
2024-04-04T07:17:25.859Z,70.48
2024-04-04T07:18:25.843Z,70.56
2024-04-04T07:19:25.837Z,71.45
2024-04-04T07:20:25.825Z,72.18
2024-04-04T07:21:25.851Z,71.48
2024-04-04T07:22:25.804Z,71.60
2024-04-04T07:23:25.794Z,71.67
2024-04-04T07:24:25.771Z,69.00
2024-04-04T07:25:25.766Z,67.42
2024-04-04T07:26:25.736Z,65.80
2024-04-04T07:27:25.776Z,65.46
2024-04-04T07:28:25.722Z,64.70
2024-04-04T07:29:25.730Z,63.86
2024-04-04T07:30:25.701Z,63.49
2024-04-04T07:31:25.697Z,63.77
2024-04-04T07:32:25.688Z,63.03
2024-04-04T07:33:25.679Z,62.46
2024-04-04T07:34:25.651Z,61.73
2024-04-04T07:35:25.653Z,60.96
2024-04-04T07:36:25.637Z,60.14
2024-04-04T07:37:25.653Z,60.02
2024-04-04T07:38:25.670Z,58.64
2024-04-04T07:39:25.602Z,58.50
2024-04-04T07:40:25.579Z,59.80
2024-04-04T07:41:25.567Z,59.95
2024-04-04T07:42:25.569Z,60.32
2024-04-04T07:43:25.542Z,61.47
2024-04-04T07:44:25.563Z,60.27
2024-04-04T07:45:25.528Z,58.46
2024-04-04T07:46:25.518Z,58.13
2024-04-04T07:47:25.522Z,57.35
2024-04-04T07:48:25.482Z,58.64
2024-04-04T07:49:25.476Z,59.75
2024-04-04T07:50:25.500Z,61.52
2024-04-04T07:51:25.456Z,62.74
2024-04-04T07:52:25.439Z,64.04
2024-04-04T07:53:25.420Z,65.19
2024-04-04T07:54:25.410Z,65.95
2024-04-04T07:55:25.438Z,66.57
2024-04-04T07:56:25.399Z,67.38
2024-04-04T07:57:25.384Z,66.84
2024-04-04T07:58:25.375Z,67.04
2024-04-04T07:59:25.394Z,67.10
2024-04-04T08:00:25.334Z,66.80
2024-04-04T08:01:25.355Z,66.94
2024-04-04T08:02:25.317Z,65.38
2024-04-04T08:03:25.296Z,65.69
2024-04-04T08:04:25.279Z,65.23
2024-04-04T08:05:25.287Z,65.17
2024-04-04T08:06:25.307Z,64.21
2024-04-04T08:07:25.270Z,63.21
2024-04-04T08:08:25.245Z,62.43
2024-04-04T08:09:25.251Z,62.91
2024-04-04T08:10:25.239Z,62.75
2024-04-04T08:11:25.204Z,62.83
2024-04-04T08:12:25.218Z,63.20
2024-04-04T08:13:25.179Z,62.34
2024-04-04T08:14:25.177Z,62.66
2024-04-04T08:15:25.179Z,62.85
2024-04-04T08:16:25.142Z,63.30
2024-04-04T08:17:25.140Z,62.80
2024-04-04T08:18:26.456Z,62.80
2024-04-04T08:19:25.144Z,63.65
2024-04-04T08:20:25.090Z,64.00
2024-04-04T08:21:25.087Z,62.74
2024-04-04T08:22:25.061Z,58.90
2024-04-04T08:23:25.070Z,58.27
2024-04-04T08:24:25.056Z,57.77
2024-04-04T08:25:25.081Z,59.73
2024-04-04T08:26:25.029Z,60.43
2024-04-04T08:27:25.009Z,60.71
2024-04-04T08:28:24.996Z,62.04
2024-04-04T08:29:25.022Z,63.13
2024-04-04T08:30:24.977Z,64.27
2024-04-04T08:31:24.962Z,64.80
2024-04-04T08:32:24.947Z,66.23
2024-04-04T08:33:24.948Z,66.44
2024-04-04T08:34:24.927Z,66.50
2024-04-04T08:35:25.034Z,66.61
2024-04-04T08:36:24.904Z,65.46
2024-04-04T08:37:24.889Z,65.31
2024-04-04T08:38:24.869Z,64.94
2024-04-04T08:39:24.853Z,65.98
2024-04-04T08:40:24.844Z,65.79
2024-04-04T08:41:24.887Z,64.68
2024-04-04T08:42:24.828Z,65.50
2024-04-04T08:43:24.809Z,65.53
2024-04-04T08:44:24.808Z,65.54
2024-04-04T08:45:24.880Z,66.59
2024-04-04T08:46:24.777Z,66.24
2024-04-04T08:47:24.785Z,66.62
2024-04-04T08:48:24.760Z,66.34
2024-04-04T08:49:24.732Z,67.00
2024-04-04T08:50:33.015Z,67.27
2024-04-04T08:51:24.713Z,67.65
2024-04-04T08:52:24.699Z,68.12
2024-04-04T08:53:24.708Z,68.06
2024-04-04T08:54:24.665Z,68.36
2024-04-04T08:55:24.646Z,67.74
2024-04-04T08:56:24.654Z,68.19
2024-04-04T08:57:24.634Z,68.20
2024-04-04T08:58:24.628Z,68.15
2024-04-04T08:59:24.652Z,67.68
2024-04-04T09:00:24.595Z,67.64
2024-04-04T09:01:30.330Z,67.15
2024-04-04T09:02:24.626Z,67.40
2024-04-04T09:03:24.588Z,67.32
2024-04-04T09:04:24.596Z,66.96
2024-04-04T09:05:24.604Z,67.36
2024-04-04T09:06:24.583Z,66.24
2024-04-04T09:07:24.495Z,64.68
2024-04-04T09:08:24.564Z,63.96
2024-04-04T09:09:24.580Z,62.38
2024-04-04T09:10:24.558Z,60.70
2024-04-04T09:11:24.533Z,59.14
2024-04-04T09:12:24.454Z,57.22
2024-04-04T09:13:24.453Z,58.37
2024-04-04T09:14:24.422Z,57.69
2024-04-04T09:15:24.444Z,57.20
2024-04-04T09:16:24.413Z,57.82
2024-04-04T09:17:24.382Z,57.73
2024-04-04T09:18:24.402Z,57.10
2024-04-04T09:19:24.391Z,57.68
2024-04-04T09:20:24.430Z,58.07
2024-04-04T09:21:24.340Z,57.84
2024-04-04T09:22:24.318Z,59.87
2024-04-04T09:23:24.452Z,60.46
2024-04-04T09:24:24.308Z,60.26
2024-04-04T09:25:24.505Z,59.15
2024-04-04T09:26:24.294Z,59.14
2024-04-04T09:27:24.268Z,58.55
2024-04-04T09:28:24.249Z,58.13
2024-04-04T09:29:24.250Z,58.28
2024-04-04T09:30:24.233Z,57.95
2024-04-04T09:31:24.200Z,58.45
2024-04-04T09:32:24.228Z,58.58
2024-04-04T09:33:24.181Z,59.12
2024-04-04T09:34:24.180Z,59.97
2024-04-04T09:35:24.157Z,58.82
2024-04-04T09:36:24.147Z,57.62
2024-04-04T09:37:24.136Z,57.11
2024-04-04T09:38:24.130Z,57.16
2024-04-04T09:39:24.109Z,57.91
2024-04-04T09:40:24.099Z,58.06
2024-04-04T09:41:24.080Z,58.64
2024-04-04T09:42:24.080Z,59.77
2024-04-04T09:43:24.097Z,58.66
2024-04-04T09:44:24.062Z,60.04
2024-04-04T09:45:24.047Z,59.18
2024-04-04T09:46:24.024Z,60.10
2024-04-04T09:47:24.015Z,57.86
2024-04-04T09:48:32.420Z,57.82
2024-04-04T09:49:24.088Z,59.20
2024-04-04T09:50:24.002Z,58.40
2024-04-04T09:51:23.961Z,59.32
2024-04-04T09:52:23.947Z,58.11
2024-04-04T09:53:23.945Z,58.79
2024-04-04T09:54:23.930Z,58.84
2024-04-04T09:55:23.939Z,60.54
2024-04-04T09:56:23.901Z,61.74
2024-04-04T09:57:23.876Z,61.05
2024-04-04T09:58:23.885Z,61.01
2024-04-04T09:59:23.860Z,61.32
2024-04-04T10:00:23.868Z,61.79
2024-04-04T10:01:23.857Z,62.64
2024-04-04T10:02:23.824Z,61.93
2024-04-04T10:03:23.816Z,62.18
2024-04-04T10:04:23.801Z,62.36
2024-04-04T10:05:23.811Z,62.41
2024-04-04T10:06:23.815Z,62.02
2024-04-04T10:07:23.763Z,62.12
2024-04-04T10:08:23.756Z,61.60
2024-04-04T10:09:23.735Z,61.52
2024-04-04T10:10:23.721Z,61.78
2024-04-04T10:11:23.731Z,60.97
2024-04-04T10:12:23.697Z,60.35
2024-04-04T10:13:23.700Z,59.40
2024-04-04T10:14:23.685Z,59.42
2024-04-04T10:15:23.663Z,58.35
2024-04-04T10:16:23.664Z,57.81
2024-04-04T10:17:23.634Z,55.78
2024-04-04T10:18:23.701Z,56.17
2024-04-04T10:19:23.608Z,55.57
2024-04-04T10:20:23.599Z,53.74
2024-04-04T10:21:23.611Z,55.01
2024-04-04T10:22:23.589Z,54.50
2024-04-04T10:23:23.585Z,55.93
2024-04-04T10:24:23.551Z,56.61
2024-04-04T10:25:23.566Z,55.42
2024-04-04T10:26:23.531Z,54.31
2024-04-04T10:27:23.571Z,53.51
2024-04-04T10:28:23.519Z,53.71
2024-04-04T10:29:30.874Z,54.05
2024-04-04T10:30:23.546Z,51.57
2024-04-04T10:31:23.511Z,51.38
2024-04-04T10:32:23.500Z,51.45
2024-04-04T10:33:23.474Z,51.72
2024-04-04T10:34:23.473Z,49.41
2024-04-04T10:35:23.457Z,50.91
2024-04-04T10:36:23.437Z,50.20
2024-04-04T10:37:23.404Z,51.10
2024-04-04T10:38:23.436Z,51.21
2024-04-04T10:39:23.388Z,50.28
2024-04-04T10:40:23.370Z,50.79
2024-04-04T10:41:23.353Z,51.67
2024-04-04T10:42:23.337Z,53.02
2024-04-04T10:43:23.371Z,55.27
2024-04-04T10:44:23.313Z,57.01
2024-04-04T10:45:23.306Z,56.97
2024-04-04T10:46:23.286Z,57.83
2024-04-04T10:47:23.287Z,57.85
2024-04-04T10:48:23.277Z,58.75
2024-04-04T10:49:23.289Z,59.22
2024-04-04T10:50:23.253Z,59.43
2024-04-04T10:51:23.227Z,56.60
2024-04-04T10:52:23.242Z,57.28
2024-04-04T10:53:23.212Z,55.69
2024-04-04T10:54:23.192Z,55.63
2024-04-04T10:55:23.211Z,54.37
2024-04-04T10:56:23.164Z,53.73
2024-04-04T10:57:23.155Z,54.10
2024-04-04T10:58:23.146Z,54.95
2024-04-04T10:59:23.133Z,53.74
2024-04-04T11:00:23.169Z,54.09
2024-04-04T11:01:23.133Z,54.62
2024-04-04T11:02:23.132Z,55.09
2024-04-04T11:03:23.092Z,55.84
2024-04-04T11:04:23.087Z,55.88
2024-04-04T11:05:23.100Z,56.67
2024-04-04T11:06:23.075Z,55.18
2024-04-04T11:07:23.036Z,56.08
2024-04-04T11:08:23.060Z,56.12
2024-04-04T11:09:23.013Z,56.82
2024-04-04T11:10:23.009Z,56.22
2024-04-04T11:11:23.004Z,57.24
2024-04-04T11:12:23.000Z,57.72
2024-04-04T11:13:22.963Z,57.71
2024-04-04T11:14:22.978Z,57.99
2024-04-04T11:15:22.938Z,57.97
2024-04-04T11:16:22.928Z,57.81
2024-04-04T11:17:22.919Z,58.03
2024-04-04T11:18:22.938Z,58.44
2024-04-04T11:19:22.890Z,59.49
2024-04-04T11:20:22.880Z,59.74
2024-04-04T11:21:22.868Z,61.32
2024-04-04T11:22:22.850Z,61.02
2024-04-04T11:23:22.856Z,61.64
2024-04-04T11:24:22.850Z,61.71
2024-04-04T11:25:22.825Z,61.41
2024-04-04T11:26:22.816Z,61.25
2024-04-04T11:27:22.781Z,61.86
2024-04-04T11:28:22.806Z,62.27
2024-04-04T11:29:22.753Z,62.71
2024-04-04T11:30:22.754Z,63.01
2024-04-04T11:31:22.736Z,62.75
2024-04-04T11:32:22.722Z,62.55
2024-04-04T11:33:22.706Z,63.05
2024-04-04T11:34:22.733Z,63.12
2024-04-04T11:35:22.691Z,64.08
2024-04-04T11:36:22.680Z,64.33
2024-04-04T11:37:22.671Z,63.71
2024-04-04T11:38:22.760Z,64.58
2024-04-04T11:39:22.634Z,64.57
2024-04-04T11:40:22.648Z,64.22
2024-04-04T11:41:22.611Z,64.12
2024-04-04T11:42:22.604Z,64.29
2024-04-04T11:43:22.645Z,64.06
2024-04-04T11:44:22.620Z,64.22
2024-04-04T11:45:22.591Z,64.29
2024-04-04T11:46:22.543Z,64.64
2024-04-04T11:47:22.554Z,65.15
2024-04-04T11:48:22.513Z,64.36
2024-04-04T11:49:22.555Z,64.68
2024-04-04T11:50:22.513Z,64.84
2024-04-04T11:51:22.504Z,64.19
2024-04-04T11:52:22.469Z,64.76
2024-04-04T11:53:22.461Z,64.85
2024-04-04T11:54:22.500Z,64.92
2024-04-04T11:55:22.467Z,64.85
2024-04-04T11:56:22.425Z,65.39
2024-04-04T11:57:22.424Z,64.97
2024-04-04T11:58:22.383Z,64.87
2024-04-04T11:59:22.377Z,65.08
2024-04-04T12:00:22.382Z,64.31
2024-04-04T12:01:22.358Z,64.95
2024-04-04T12:02:22.376Z,65.01
2024-04-04T12:03:22.330Z,64.86
2024-04-04T12:04:22.309Z,65.30
2024-04-04T12:05:22.319Z,65.79
2024-04-04T12:06:22.292Z,66.28
2024-04-04T12:07:22.278Z,66.00
2024-04-04T12:08:29.505Z,64.99
2024-04-04T12:09:22.259Z,64.24
2024-04-04T12:10:22.240Z,63.98
2024-04-04T12:11:22.224Z,63.67
2024-04-04T12:12:22.211Z,62.56
2024-04-04T12:13:22.210Z,63.55
2024-04-04T12:14:22.202Z,64.38
2024-04-04T12:15:22.184Z,63.19
2024-04-04T12:16:22.178Z,63.47
2024-04-04T12:17:22.156Z,63.28
2024-04-04T12:18:22.135Z,64.05
2024-04-04T12:19:22.132Z,63.16
2024-04-04T12:20:22.116Z,64.52
2024-04-04T12:21:22.113Z,65.27
2024-04-04T12:22:22.117Z,64.43
2024-04-04T12:23:22.088Z,63.45
2024-04-04T12:24:22.095Z,64.03
2024-04-04T12:25:22.054Z,62.64
2024-04-04T12:26:22.037Z,62.02
2024-04-04T12:27:22.027Z,63.47
2024-04-04T12:28:22.007Z,64.65
2024-04-04T12:29:22.003Z,64.26
2024-04-04T12:30:22.019Z,63.63
2024-04-04T12:31:21.975Z,63.03
2024-04-04T12:32:21.967Z,62.93
2024-04-04T12:33:21.941Z,60.39
2024-04-04T12:34:21.938Z,62.29
2024-04-04T12:35:21.930Z,60.97
2024-04-04T12:36:21.947Z,61.89
2024-04-04T12:37:21.912Z,63.36
2024-04-04T12:38:21.879Z,63.53
2024-04-04T12:39:21.871Z,62.55
2024-04-04T12:40:21.978Z,62.02
2024-04-04T12:41:21.872Z,62.79
2024-04-04T12:42:21.866Z,62.44
2024-04-04T12:43:21.829Z,62.31
2024-04-04T12:44:21.810Z,63.46
2024-04-04T12:45:21.790Z,63.62
2024-04-04T12:46:21.781Z,63.17
2024-04-04T12:47:21.798Z,62.83
2024-04-04T12:48:21.753Z,63.29
2024-04-04T12:49:21.817Z,61.58
2024-04-04T12:50:21.738Z,60.14
2024-04-04T12:51:21.712Z,61.37
2024-04-04T12:52:21.711Z,62.10